Nearby METAR Reports

 

KSLC - Salt Lake City, Utah, USA
Distance from station: SW 8mi, 13km
Updated: Sat, 22-Sep-2018 11:54pm MDT
Few Clouds
Few Clouds
 Wind from S
Wind: S 13 mph , 20 km/h
Temperature: 73°F , 23°C
Dew Point: 37°F , 3°C
Humidity: 27%
Barometer: 29.93 inHg , 1013.5 hPa
Clouds: Few Clouds
Visibility: 10 miles , 16 km
Cloud details: Few Clouds 9000 ft
2018/09/23 05:54 KSLC 230554Z 17011KT 10SM FEW090 23/03 A2993 RMK AO2 SLP080 T02280028 10300 20206 58004
KU42 - Salt Lake Muni, Utah, USA
Distance from station: SSW 18mi, 28km
Updated: Wed, 31-Dec-1969 5:00pm MST
NOT Current
unable to load KU42 data RC=
unable to load KU42 data RC=
 
 
KHIF - Hill Afb/Ogden, Utah, USA
Distance from station: NNW 19mi, 30km
Updated: Wed, 31-Dec-1969 5:00pm MST
NOT Current
unable to load KHIF data RC=
unable to load KHIF data RC=
 
KOGD - Ogden, Utah, USA
Distance from station: NNW 25mi, 40km
Updated: Wed, 31-Dec-1969 5:00pm MST
NOT Current
unable to load KOGD data RC=
unable to load KOGD data RC=
 
 
K36U - Heber/Russ Mcdon, Utah, USA
Distance from station: SE 34mi, 55km
Updated: Wed, 31-Dec-1969 5:00pm MST
NOT Current
unable to load K36U data RC=
unable to load K36U data RC=
 
KPVU - Provo Muni, Utah, USA
Distance from station: S 45mi, 72km
Updated: Wed, 31-Dec-1969 5:00pm MST
NOT Current
unable to load KPVU data RC=
unable to load KPVU data RC=